createdAt,value
2022-10-24T00:01:53.185Z,98124.00
2022-10-24T00:04:21.248Z,98188.00
2022-10-24T00:06:49.375Z,98160.00
2022-10-24T00:09:17.711Z,98111.00
2022-10-24T00:11:45.997Z,98124.00
2022-10-24T00:14:15.568Z,98202.00
2022-10-24T00:16:43.741Z,98203.00
2022-10-24T00:19:11.780Z,98172.00
2022-10-24T00:21:39.970Z,98160.00
2022-10-24T00:24:08.249Z,98183.00
2022-10-24T00:26:36.347Z,98122.00
2022-10-24T00:29:04.538Z,98156.00
2022-10-24T00:31:34.503Z,98168.00
2022-10-24T00:34:02.786Z,98157.00
2022-10-24T00:36:31.648Z,98130.00
2022-10-24T00:38:59.805Z,98106.00
2022-10-24T00:41:29.368Z,98184.00
2022-10-24T00:44:17.200Z,98180.00
2022-10-24T00:46:48.360Z,98197.00
2022-10-24T00:49:17.444Z,98184.00
2022-10-24T00:51:45.815Z,98144.00
2022-10-24T00:54:15.576Z,98165.00
2022-10-24T00:56:46.131Z,98168.00
2022-10-24T00:59:14.514Z,98174.00
2022-10-24T01:01:43.504Z,98189.00
2022-10-24T01:04:13.566Z,98181.00
2022-10-24T01:06:49.337Z,98181.00
2022-10-24T01:09:23.992Z,98177.00
2022-10-24T01:11:59.136Z,98183.00
2022-10-24T01:14:31.199Z,98176.00
2022-10-24T01:17:01.958Z,98168.00
2022-10-24T01:19:43.953Z,98173.00
2022-10-24T01:22:13.657Z,98175.00
2022-10-24T01:24:52.194Z,98166.00
2022-10-24T01:27:35.110Z,98163.00
2022-10-24T01:30:06.457Z,98172.00
2022-10-24T03:15:59.588Z,98160.00
2022-10-24T03:18:27.957Z,98149.00
2022-10-24T03:20:56.218Z,98154.00
2022-10-24T03:23:28.597Z,98142.00
2022-10-24T03:25:57.091Z,98157.00
2022-10-24T03:28:25.440Z,98165.00
2022-10-24T03:30:53.732Z,98175.00
2022-10-24T03:33:23.394Z,98165.00
2022-10-24T03:35:53.453Z,98167.00
2022-10-24T03:38:21.958Z,98167.00
2022-10-24T03:40:50.354Z,98165.00
2022-10-24T03:43:19.483Z,98160.00
2022-10-24T03:45:47.893Z,98172.00
2022-10-24T03:48:16.280Z,98164.00
2022-10-24T03:50:46.010Z,98160.00
2022-10-24T03:53:14.249Z,98155.00
2022-10-24T03:55:42.581Z,98156.00
2022-10-24T03:58:10.832Z,98164.00
2022-10-24T04:00:40.761Z,98156.00
2022-10-24T04:03:09.808Z,98158.00
2022-10-24T04:08:08.917Z,98161.00
2022-10-24T04:10:37.235Z,98152.00
2022-10-24T04:13:06.682Z,98166.00
2022-10-24T04:15:35.091Z,98167.00
2022-10-24T04:18:03.339Z,98173.00
2022-10-24T04:20:31.650Z,98177.00
2022-10-24T04:23:02.282Z,98175.00
2022-10-24T04:25:34.113Z,98173.00
2022-10-24T04:28:02.377Z,98175.00
2022-10-24T04:30:30.700Z,98163.00
2022-10-24T04:32:58.955Z,98164.00
2022-10-24T04:35:31.776Z,98162.00
2022-10-24T04:38:00.522Z,98156.00
2022-10-24T04:40:58.522Z,98155.00
2022-10-24T04:43:27.646Z,98172.00
2022-10-24T04:45:56.771Z,98161.00
2022-10-24T04:48:25.597Z,98161.00
2022-10-24T04:50:54.258Z,98169.00
2022-10-24T04:53:23.310Z,98176.00
2022-10-24T04:55:53.533Z,98172.00
2022-10-24T04:58:22.479Z,98175.00
2022-10-24T05:00:52.212Z,98158.00
2022-10-24T05:03:21.177Z,98161.00
2022-10-24T05:05:50.382Z,98157.00
2022-10-24T05:08:18.882Z,98156.00
2022-10-24T05:10:49.337Z,98159.00
2022-10-24T05:13:21.397Z,98158.00
2022-10-24T05:15:50.985Z,98169.00
2022-10-24T05:18:28.128Z,98158.00
2022-10-24T05:20:58.908Z,98142.00
2022-10-24T05:23:29.115Z,98147.00
2022-10-24T05:25:58.599Z,98142.00
2022-10-24T05:28:30.504Z,98137.00
2022-10-24T05:30:59.050Z,98143.00
2022-10-24T05:33:28.036Z,98147.00
2022-10-24T05:35:57.411Z,98123.00
2022-10-24T05:38:26.675Z,98125.00
2022-10-24T05:40:55.633Z,98132.00
2022-10-24T05:43:24.645Z,98128.00
2022-10-24T05:45:55.629Z,98128.00
2022-10-24T05:48:24.736Z,98132.00
2022-10-24T05:50:58.065Z,98129.00
2022-10-24T05:53:27.181Z,98128.00
2022-10-24T05:55:56.226Z,98137.00
2022-10-24T05:58:25.441Z,98129.00
2022-10-24T06:00:56.322Z,98133.00
2022-10-24T06:03:25.869Z,98134.00
2022-10-24T06:05:55.051Z,98145.00
2022-10-24T06:08:28.904Z,98153.00
2022-10-24T06:11:13.582Z,98162.00
2022-10-24T06:13:44.498Z,98158.00
2022-10-24T06:16:16.302Z,98156.00
2022-10-24T06:18:45.318Z,98168.00
2022-10-24T06:21:17.214Z,98173.00
2022-10-24T06:23:46.533Z,98169.00
2022-10-24T06:26:18.210Z,98169.00
2022-10-24T06:28:48.424Z,98178.00
2022-10-24T06:31:20.813Z,98192.00
2022-10-24T06:33:54.457Z,98211.00
2022-10-24T06:36:31.537Z,98247.00
2022-10-24T06:39:01.089Z,98244.00
2022-10-24T06:41:31.761Z,98233.00
2022-10-24T06:44:00.892Z,98214.00
2022-10-24T06:46:31.206Z,98202.00
2022-10-24T06:49:23.754Z,98209.00
2022-10-24T06:52:00.156Z,98205.00
2022-10-24T06:54:30.676Z,98209.00
2022-10-24T06:57:33.254Z,98223.00
2022-10-24T07:00:18.987Z,98203.00
2022-10-24T07:02:50.303Z,98232.00
2022-10-24T07:05:18.947Z,98257.00
2022-10-24T07:07:47.599Z,98278.00
2022-10-24T07:10:16.247Z,98273.00
2022-10-24T07:12:56.877Z,98273.00
2022-10-24T07:15:25.736Z,98259.00
2022-10-24T07:17:56.457Z,98235.00
2022-10-24T07:20:24.645Z,98237.00
2022-10-24T07:22:52.871Z,98294.00
2022-10-24T07:25:21.119Z,98290.00
2022-10-24T07:27:52.551Z,98309.00
2022-10-24T07:30:20.679Z,98316.00
2022-10-24T07:32:48.849Z,98300.00
2022-10-24T07:35:18.519Z,98306.00
2022-10-24T07:37:46.804Z,98294.00
2022-10-24T07:40:15.247Z,98269.00
2022-10-24T07:42:43.793Z,98273.00
2022-10-24T07:45:12.694Z,98250.00
2022-10-24T07:47:40.849Z,98248.00
2022-10-24T07:50:10.332Z,98261.00
2022-10-24T07:52:39.838Z,98232.00
2022-10-24T07:55:08.439Z,98238.00
2022-10-24T07:57:36.615Z,98239.00
2022-10-24T08:00:05.530Z,98194.00
2022-10-24T08:02:34.066Z,98186.00
2022-10-24T08:05:02.189Z,98173.00
2022-10-24T08:07:30.294Z,98181.00
2022-10-24T08:09:59.857Z,98189.00
2022-10-24T08:12:27.994Z,98207.00
2022-10-24T08:14:56.193Z,98225.00
2022-10-24T08:17:24.759Z,98219.00
2022-10-24T08:19:52.949Z,98220.00
2022-10-24T08:22:21.085Z,98218.00
2022-10-24T08:24:49.209Z,98209.00
2022-10-24T08:27:18.823Z,98223.00
2022-10-24T08:29:46.950Z,98228.00
2022-10-24T08:32:15.090Z,98257.00
2022-10-24T08:34:43.507Z,98237.00
2022-10-24T08:37:11.678Z,98245.00
2022-10-24T08:39:39.836Z,98246.00
2022-10-24T08:42:08.863Z,98255.00
2022-10-24T08:44:40.090Z,98250.00
2022-10-24T08:47:10.405Z,98251.00
2022-10-24T08:49:39.919Z,98259.00
2022-10-24T08:52:13.079Z,98257.00
2022-10-24T08:54:42.355Z,98249.00
2022-10-24T08:57:11.096Z,98242.00
2022-10-24T08:59:40.593Z,98232.00
2022-10-24T09:02:15.061Z,98235.00
2022-10-24T09:04:46.846Z,98233.00
2022-10-24T09:07:17.214Z,98227.00
2022-10-24T09:09:47.142Z,98229.00
2022-10-24T09:12:15.786Z,98225.00
2022-10-24T09:14:47.272Z,98247.00
2022-10-24T09:19:50.249Z,98255.00
2022-10-24T09:22:18.361Z,98238.00
2022-10-24T09:24:47.838Z,98239.00
2022-10-24T09:27:17.231Z,98252.00
2022-10-24T09:29:46.734Z,98263.00
2022-10-24T09:32:16.648Z,98279.00
2022-10-24T09:34:45.064Z,98275.00
2022-10-24T09:37:37.614Z,98269.00
2022-10-24T09:40:17.350Z,98290.00
2022-10-24T09:42:50.610Z,98273.00
2022-10-24T09:45:31.113Z,98308.00
2022-10-24T09:47:59.924Z,98306.00
2022-10-24T09:50:28.029Z,98316.00
2022-10-24T09:52:58.617Z,98334.00
2022-10-24T09:55:29.372Z,98342.00
2022-10-24T09:58:00.683Z,98347.00
2022-10-24T10:00:33.676Z,98341.00
2022-10-24T10:03:04.224Z,98324.00
2022-10-24T10:05:44.361Z,98312.00
2022-10-24T10:08:13.913Z,98312.00
2022-10-24T10:10:42.031Z,98302.00
2022-10-24T10:13:22.927Z,98318.00
2022-10-24T10:15:53.723Z,98320.00
2022-10-24T10:18:43.561Z,98317.00
2022-10-24T10:21:13.024Z,98302.00
2022-10-24T10:23:42.353Z,98299.00
2022-10-24T10:26:22.060Z,98305.00
2022-10-24T10:28:58.870Z,98299.00
2022-10-24T10:31:34.694Z,98298.00
2022-10-24T10:34:09.136Z,98305.00
2022-10-24T10:36:41.123Z,98294.00
2022-10-24T10:39:20.002Z,98288.00
2022-10-24T10:41:49.414Z,98291.00
2022-10-24T10:44:46.518Z,98297.00
2022-10-24T10:47:23.889Z,98293.00
2022-10-24T10:49:56.146Z,98298.00
2022-10-24T10:52:25.522Z,98287.00
2022-10-24T10:55:22.520Z,98300.00
2022-10-24T10:57:52.825Z,98290.00
2022-10-24T11:00:23.215Z,98295.00
2022-10-24T11:03:09.040Z,98295.00
2022-10-24T11:05:47.667Z,98287.00
2022-10-24T11:08:28.963Z,98296.00
2022-10-24T11:10:59.435Z,98297.00
2022-10-24T11:13:32.521Z,98287.00
2022-10-24T11:16:03.376Z,98281.00
2022-10-24T11:18:35.591Z,98272.00
2022-10-24T11:21:05.271Z,98263.00
2022-10-24T11:23:35.215Z,98267.00
2022-10-24T11:26:04.342Z,98261.00
2022-10-24T11:28:34.106Z,98250.00
2022-10-24T11:31:04.656Z,98254.00
2022-10-24T11:33:36.214Z,98259.00
2022-10-24T11:36:15.052Z,98256.00
2022-10-24T11:38:46.650Z,98251.00
2022-10-24T11:41:29.851Z,98255.00
2022-10-24T11:43:58.231Z,98258.00
2022-10-24T11:46:27.597Z,98251.00
2022-10-24T11:48:58.546Z,98254.00
2022-10-24T11:51:29.285Z,98253.00
2022-10-24T11:53:58.837Z,98256.00
2022-10-24T11:56:31.912Z,98243.00
2022-10-24T11:59:01.282Z,98258.00
2022-10-24T12:01:58.727Z,98260.00
2022-10-24T12:05:02.315Z,98270.00
2022-10-24T12:08:09.304Z,98258.00
2022-10-24T12:10:50.758Z,98266.00
2022-10-24T12:13:42.537Z,98259.00
2022-10-24T12:16:13.991Z,98263.00
2022-10-24T12:18:43.091Z,98250.00
2022-10-24T12:21:13.985Z,98255.00
2022-10-24T12:23:42.189Z,98262.00
2022-10-24T12:26:18.570Z,98257.00
2022-10-24T12:28:54.587Z,98250.00
2022-10-24T12:31:26.208Z,98238.00
2022-10-24T12:34:31.872Z,98232.00
2022-10-24T12:37:08.223Z,98243.00
2022-10-24T12:39:37.270Z,98238.00
2022-10-24T12:42:05.466Z,98243.00
2022-10-24T12:44:51.690Z,98237.00
2022-10-24T12:47:36.506Z,98243.00
2022-10-24T12:50:42.341Z,98242.00
2022-10-24T12:53:37.637Z,98242.00
2022-10-24T12:56:16.900Z,98240.00
2022-10-24T12:59:01.192Z,98221.00
2022-10-24T13:01:33.485Z,98228.00
2022-10-24T13:04:30.305Z,98220.00
2022-10-24T13:07:34.081Z,98234.00
2022-10-24T13:10:15.686Z,98236.00
2022-10-24T13:12:51.659Z,98228.00
2022-10-24T13:15:26.498Z,98210.00
2022-10-24T13:18:01.202Z,98215.00
2022-10-24T13:20:31.909Z,98232.00
2022-10-24T13:23:01.797Z,98207.00
2022-10-24T13:25:34.630Z,98175.00
2022-10-24T13:28:39.119Z,98173.00
2022-10-24T13:31:45.485Z,98205.00
2022-10-24T13:34:40.942Z,98199.00
2022-10-24T13:37:15.936Z,98194.00
2022-10-24T13:39:47.869Z,98187.00
2022-10-24T17:50:11.959Z,98294.00
2022-10-24T17:52:42.242Z,98288.00
2022-10-24T17:55:27.803Z,98290.00
2022-10-24T17:58:02.978Z,98298.00
2022-10-24T18:00:31.214Z,98304.00
2022-10-24T18:02:59.803Z,98301.00
2022-10-24T18:05:29.921Z,98305.00
2022-10-24T18:07:58.099Z,98303.00
2022-10-24T18:10:26.288Z,98302.00
2022-10-24T18:12:54.481Z,98304.00
2022-10-24T18:15:23.248Z,98311.00
2022-10-24T18:17:51.383Z,98305.00
2022-10-24T18:20:19.579Z,98302.00
2022-10-24T18:22:49.762Z,98309.00
2022-10-24T18:25:22.690Z,98317.00
2022-10-24T18:27:51.604Z,98315.00
2022-10-24T18:30:20.247Z,98319.00
2022-10-24T18:32:48.587Z,98312.00
2022-10-24T18:35:16.978Z,98315.00
2022-10-24T18:37:45.342Z,98315.00
2022-10-24T18:40:16.290Z,98323.00
2022-10-24T18:42:47.905Z,98318.00
2022-10-24T18:45:19.970Z,98316.00
2022-10-24T18:47:48.897Z,98319.00
2022-10-24T18:50:19.108Z,98322.00
2022-10-24T18:52:50.497Z,98327.00
2022-10-24T18:55:21.177Z,98329.00
2022-10-24T18:57:49.942Z,98334.00
2022-10-24T19:00:19.506Z,98337.00
2022-10-24T19:02:51.970Z,98338.00
2022-10-24T19:05:22.505Z,98337.00
2022-10-24T19:07:50.979Z,98336.00
2022-10-24T19:10:22.923Z,98338.00
2022-10-24T19:12:51.515Z,98334.00
2022-10-24T19:15:20.652Z,98331.00
2022-10-24T19:17:48.941Z,98341.00
2022-10-24T19:20:19.057Z,98341.00
2022-10-24T19:22:47.670Z,98338.00
2022-10-24T19:25:16.294Z,98337.00
2022-10-24T19:27:45.997Z,98331.00
2022-10-24T19:30:14.831Z,98340.00
2022-10-24T19:32:43.057Z,98339.00
2022-10-24T19:35:11.365Z,98330.00
2022-10-24T19:37:39.514Z,98327.00
2022-10-24T19:40:09.224Z,98329.00
2022-10-24T19:42:37.388Z,98345.00
2022-10-24T19:45:07.973Z,98341.00
2022-10-24T19:47:36.134Z,98342.00
2022-10-24T19:50:04.705Z,98341.00
2022-10-24T19:52:32.853Z,98339.00
2022-10-24T19:55:01.020Z,98338.00
2022-10-24T19:57:29.628Z,98330.00
2022-10-24T19:59:57.802Z,98338.00
2022-10-24T20:02:28.344Z,98336.00
2022-10-24T20:04:56.494Z,98333.00
2022-10-24T20:07:24.625Z,98338.00
2022-10-24T20:09:52.741Z,98334.00
2022-10-24T20:12:20.937Z,98335.00
2022-10-24T20:14:49.087Z,98355.00
2022-10-24T20:17:17.739Z,98355.00
2022-10-24T20:19:47.347Z,98349.00
2022-10-24T20:22:15.466Z,98347.00
2022-10-24T20:24:43.623Z,98336.00
2022-10-24T20:27:11.781Z,98348.00
2022-10-24T20:29:39.980Z,98355.00
2022-10-24T20:32:08.732Z,98341.00
2022-10-24T20:34:36.882Z,98334.00
2022-10-24T20:37:06.994Z,98326.00
2022-10-24T20:39:35.612Z,98330.00
2022-10-24T20:42:03.819Z,98340.00
2022-10-24T20:44:31.924Z,98336.00
2022-10-24T20:47:00.112Z,98346.00
2022-10-24T20:49:28.247Z,98344.00
2022-10-24T20:51:56.397Z,98358.00
2022-10-24T20:54:26.114Z,98367.00
2022-10-24T20:56:54.381Z,98362.00
2022-10-24T20:59:22.832Z,98364.00
2022-10-24T21:01:51.119Z,98367.00
2022-10-24T21:04:20.815Z,98375.00
2022-10-24T21:06:49.165Z,98378.00
2022-10-24T21:09:17.348Z,98377.00
2022-10-24T21:11:46.886Z,98381.00
2022-10-24T21:14:15.051Z,98389.00
2022-10-24T21:16:43.223Z,98383.00
2022-10-24T21:19:11.357Z,98386.00
2022-10-24T21:21:39.856Z,98394.00
2022-10-24T21:24:08.505Z,98386.00
2022-10-24T21:26:38.398Z,98397.00
2022-10-24T21:29:14.935Z,98394.00
2022-10-24T21:31:49.894Z,98399.00
2022-10-24T21:34:18.143Z,98408.00
2022-10-24T21:36:46.334Z,98409.00
2022-10-24T21:39:14.874Z,98409.00
2022-10-24T21:41:43.117Z,98409.00
2022-10-24T21:44:12.648Z,98409.00
2022-10-24T21:46:40.801Z,98413.00
2022-10-24T21:49:09.494Z,98412.00
2022-10-24T21:51:39.266Z,98409.00
2022-10-24T21:54:08.905Z,98430.00
2022-10-24T21:56:37.812Z,98435.00
2022-10-24T21:59:07.226Z,98422.00
2022-10-24T22:01:37.388Z,98433.00
2022-10-24T22:04:06.315Z,98418.00
2022-10-24T22:06:35.554Z,98424.00
2022-10-24T22:09:03.856Z,98425.00
2022-10-24T22:11:32.869Z,98429.00
2022-10-24T22:14:01.013Z,98425.00
2022-10-24T22:16:30.422Z,98429.00
2022-10-24T22:19:01.864Z,98446.00
2022-10-24T22:21:31.406Z,98446.00
2022-10-24T22:23:59.907Z,98448.00
2022-10-24T22:26:28.129Z,98441.00
2022-10-24T22:28:57.188Z,98441.00
2022-10-24T22:31:25.965Z,98439.00
2022-10-24T22:33:54.360Z,98442.00
2022-10-24T22:36:31.298Z,98445.00
2022-10-24T22:39:00.015Z,98447.00
2022-10-24T22:41:28.144Z,98457.00
2022-10-24T22:43:56.833Z,98458.00
2022-10-24T22:46:32.073Z,98451.00
2022-10-24T22:49:02.786Z,98460.00
2022-10-24T22:51:33.095Z,98445.00
2022-10-24T22:54:01.763Z,98456.00
2022-10-24T22:56:33.474Z,98463.00
2022-10-24T22:59:02.157Z,98468.00
2022-10-24T23:01:40.218Z,98470.00
2022-10-24T23:04:17.241Z,98473.00
2022-10-24T23:06:48.072Z,98484.00
2022-10-24T23:09:16.189Z,98479.00
2022-10-24T23:11:44.838Z,98481.00
2022-10-24T23:14:13.463Z,98486.00
2022-10-24T23:16:43.851Z,98485.00
2022-10-24T23:19:16.320Z,98494.00
2022-10-24T23:21:48.865Z,98491.00
2022-10-24T23:24:17.308Z,98499.00
2022-10-24T23:26:48.738Z,98493.00
2022-10-24T23:29:19.351Z,98488.00
2022-10-24T23:31:48.003Z,98501.00
2022-10-24T23:34:16.947Z,98496.00
2022-10-24T23:36:46.838Z,98498.00
2022-10-24T23:39:15.547Z,98497.00
2022-10-24T23:41:44.356Z,98498.00
2022-10-24T23:44:13.046Z,98495.00
2022-10-24T23:46:44.647Z,98494.00
2022-10-24T23:49:24.207Z,98495.00
2022-10-24T23:51:56.564Z,98492.00
2022-10-24T23:54:26.540Z,98489.00
2022-10-24T23:56:55.264Z,98477.00
2022-10-24T23:59:23.449Z,98487.00
